Time;durP1;ratioP1;P1;durP2;ratioP2;P2;SDS_P1;SDS_P2;PMS_P1;PMS_P2;Temp;Humidity;BMP_temperature;BMP_pressure;BME280_temperature;BME280_humidity;BME280_pressure;Samples;Min_cycle;Max_cycle;Signal;HPM_P1;HPM_P2
2022/12/06 00:01:33;;;;;;;26.85;8.88;;;;;;;-148.88;100.00;77581.34;5015244;28;20048;-77
2022/12/06 00:04:01;;;;;;;15.00;8.87;;;;;;;-148.88;100.00;77575.25;5016717;28;20025;-76
2022/12/06 00:06:30;;;;;;;18.20;8.02;;;;;;;-148.88;100.00;77577.28;5015069;28;20026;-77
2022/12/06 00:08:56;;;;;;;15.27;8.27;;;;;;;-148.88;100.00;77567.13;5016324;28;20057;-76
2022/12/06 00:11:25;;;;;;;17.33;8.70;;;;;;;-148.88;100.00;77569.16;5016268;28;20026;-76
2022/12/06 00:14:02;;;;;;;18.20;8.30;;;;;;;-148.88;100.00;77569.16;5014924;28;20026;-77
2022/12/06 00:16:28;;;;;;;18.38;9.20;;;;;;;-148.88;100.00;77563.06;5014922;28;20044;-77
2022/12/06 00:18:54;;;;;;;13.90;8.18;;;;;;;-148.88;100.00;77565.09;5016448;28;20061;-77
2022/12/06 00:21:23;;;;;;;16.27;8.25;;;;;;;-148.88;100.00;77565.09;5016133;28;20034;-77
2022/12/06 00:23:54;;;;;;;18.67;8.50;;;;;;;-148.88;100.00;77569.16;5016250;28;20382;-77
2022/12/06 00:26:21;;;;;;;15.55;7.78;;;;;;;-148.88;100.00;77565.09;5013859;28;20079;-76
2022/12/06 00:28:47;;;;;;;23.55;8.07;;;;;;;-148.88;100.00;77571.19;5016319;28;20021;-77
2022/12/06 00:31:16;;;;;;;20.50;8.93;;;;;;;-148.88;100.00;77561.03;5016146;28;20125;-77
2022/12/06 00:33:41;;;;;;;17.52;7.80;;;;;;;-148.88;100.00;77561.03;5016254;28;20028;-77
2022/12/06 00:36:12;;;;;;;18.65;7.97;;;;;;;-148.88;100.00;77571.19;5016191;28;20030;-77
2022/12/06 00:38:38;;;;;;;18.52;8.00;;;;;;;-148.88;100.00;77556.97;5014640;28;20594;-77
2022/12/06 00:41:12;;;;;;;25.90;9.38;;;;;;;-148.88;100.00;77567.13;5015843;28;20120;-76
2022/12/06 00:43:38;;;;;;;17.88;7.35;;;;;;;-148.88;100.00;77561.03;5014512;28;20021;-76
2022/12/06 00:46:05;;;;;;;22.52;8.25;;;;;;;-148.88;100.00;77556.97;5015649;28;20022;-77
2022/12/06 00:48:31;;;;;;;19.40;8.60;;;;;;;-148.88;100.00;77554.94;5015645;28;20057;-77
2022/12/06 00:50:57;;;;;;;23.08;9.63;;;;;;;-148.88;100.00;77569.16;5015595;28;20109;-76
2022/12/06 00:53:22;;;;;;;20.67;7.80;;;;;;;-148.88;100.00;77565.09;5014304;28;20026;-76
2022/12/06 00:55:48;;;;;;;20.27;8.85;;;;;;;-148.88;100.00;77571.19;5015494;28;20018;-77
2022/12/06 00:58:15;;;;;;;16.80;7.82;;;;;;;-148.88;100.00;77565.09;5015475;28;20025;-77
2022/12/06 01:00:40;;;;;;;15.68;7.55;;;;;;;-148.88;100.00;77565.09;5015499;28;20026;-76
2022/12/06 01:03:06;;;;;;;21.52;9.05;;;;;;;-148.88;100.00;77565.09;5014060;28;20028;-77
2022/12/06 01:05:31;;;;;;;18.75;8.52;;;;;;;-148.88;100.00;77563.06;5015280;28;20383;-77
2022/12/06 01:07:57;;;;;;;18.40;8.77;;;;;;;-148.88;100.00;77569.16;5014078;28;20034;-77
2022/12/06 01:10:23;;;;;;;19.90;9.45;;;;;;;-148.88;100.00;77550.88;5014293;28;20057;-77
2022/12/06 01:12:48;;;;;;;21.25;8.32;;;;;;;-148.88;100.00;77559.00;5015294;28;20021;-77
2022/12/06 01:15:13;;;;;;;20.35;8.77;;;;;;;-148.88;100.00;77565.09;5015031;28;20475;-77
2022/12/06 01:17:39;;;;;;;19.92;9.32;;;;;;;-148.88;100.00;77559.00;5015104;28;20391;-77
2022/12/06 01:20:05;;;;;;;19.85;8.60;;;;;;;-148.88;100.00;77569.16;5013748;28;20391;-77
2022/12/06 01:22:31;;;;;;;19.25;8.25;;;;;;;-148.88;100.00;77569.16;5015299;28;20024;-77
2022/12/06 01:24:56;;;;;;;18.23;7.78;;;;;;;-148.88;100.00;77561.03;5015428;28;20061;-77
2022/12/06 01:27:22;;;;;;;18.23;8.77;;;;;;;-148.88;100.00;77556.97;5015103;28;20468;-77
2022/12/06 01:29:47;;;;;;;15.15;7.88;;;;;;;-148.88;100.00;77556.97;5013564;28;20057;-77
2022/12/06 01:32:13;;;;;;;20.65;8.20;;;;;;;-148.88;100.00;77571.19;5014696;28;20029;-77
2022/12/06 01:34:38;;;;;;;16.58;7.65;;;;;;;-148.88;100.00;77565.09;5014627;28;20022;-77
2022/12/06 01:37:04;;;;;;;14.38;7.88;;;;;;;-148.88;100.00;77569.16;5014688;28;20052;-77
2022/12/06 01:39:30;;;;;;;16.08;7.70;;;;;;;-148.88;100.00;77569.16;5014951;28;20022;-77
2022/12/06 01:41:55;;;;;;;17.70;7.80;;;;;;;-148.88;100.00;77565.09;5014598;28;20409;-77
2022/12/06 01:44:44;;;;;;;17.75;8.55;;;;;;;-148.88;100.00;77561.03;5014665;28;20478;-77
2022/12/06 01:47:18;;;;;;;16.25;8.20;;;;;;;-148.88;100.00;77556.97;5014662;28;20029;-77
2022/12/06 01:49:56;;;;;;;15.63;7.85;;;;;;;-148.88;100.00;77561.03;5014821;28;20030;-77
2022/12/06 01:52:28;;;;;;;15.18;7.68;;;;;;;-148.88;100.00;77548.84;5013346;28;20026;-77
2022/12/06 01:54:54;;;;;;;19.20;8.88;;;;;;;-148.88;100.00;77565.09;5013082;28;20025;-77
2022/12/06 01:57:19;;;;;;;17.15;8.43;;;;;;;-148.88;100.00;77573.22;5013055;28;20028;-77
2022/12/06 01:59:45;;;;;;;20.30;9.63;;;;;;;-148.88;100.00;77575.25;5014275;28;20041;-77
2022/12/06 02:02:11;;;;;;;17.90;9.10;;;;;;;-148.88;100.00;77559.00;5014370;28;20051;-77
2022/12/06 02:04:38;;;;;;;16.23;8.02;;;;;;;-148.88;100.00;77565.09;5012947;28;20084;-76
2022/12/06 02:07:05;;;;;;;19.00;8.25;;;;;;;-148.88;100.00;77546.81;5012805;28;20499;-77
2022/12/06 02:09:30;;;;;;;21.08;9.32;;;;;;;-148.88;100.00;77561.03;5014414;28;20425;-77
2022/12/06 02:11:55;;;;;;;19.45;8.82;;;;;;;-148.88;100.00;77556.97;5014107;28;20083;-77
2022/12/06 02:14:29;;;;;;;16.65;8.50;;;;;;;-148.88;100.00;77565.09;5014002;28;20026;-77
2022/12/06 02:16:54;;;;;;;;;;;;;;;-148.88;100.00;77559.00;5014829;28;20026;-77
2022/12/06 02:19:54;;;;;;;19.75;8.35;;;;;;;-148.88;100.00;77567.13;5012758;28;20366;-77
2022/12/06 02:22:23;;;;;;;16.73;8.20;;;;;;;-148.88;100.00;77569.16;5012833;28;20022;-77
2022/12/06 02:24:57;;;;;;;17.08;8.05;;;;;;;-148.88;100.00;77548.84;5013900;28;20126;-78
2022/12/06 02:27:59;;;;;;;18.95;9.15;;;;;;;-148.88;100.00;77567.13;5013801;28;20153;-77
2022/12/06 02:30:43;;;;;;;21.38;9.30;;;;;;;-148.88;100.00;77544.78;5014025;28;20025;-77
2022/12/06 02:33:28;;;;;;;16.95;8.70;;;;;;;-148.88;100.00;77528.50;5013864;28;20041;-77
2022/12/06 02:36:07;;;;;;;16.02;7.82;;;;;;;-148.88;100.00;77552.91;5013684;28;20033;-77
2022/12/06 02:38:45;;;;;;;17.23;8.00;;;;;;;-148.88;100.00;77544.78;5013998;28;20064;-76
2022/12/06 02:44:39;;;;;;;21.35;8.27;;;;;;;-148.88;100.00;77556.97;5013819;28;20049;-77
2022/12/06 02:47:07;;;;;;;15.90;8.17;;;;;;;-148.88;100.00;77544.78;5013540;28;20026;-77
2022/12/06 02:49:37;;;;;;;17.20;8.35;;;;;;;-148.88;100.00;77544.78;5013097;28;20259;-77
2022/12/06 02:52:03;;;;;;;16.25;8.57;;;;;;;-148.88;100.00;77536.66;5013562;28;20036;-77
2022/12/06 02:54:28;;;;;;;19.02;9.88;;;;;;;-148.88;100.00;77536.66;5013385;28;20029;-77
2022/12/06 02:56:54;;;;;;;17.52;8.93;;;;;;;-148.88;100.00;77532.59;5013421;28;20022;-77
2022/12/06 02:59:20;;;;;;;18.35;8.88;;;;;;;-148.88;100.00;77532.59;5018054;28;20372;-74
2022/12/06 03:01:51;;;;;;;16.55;8.77;;;;;;;-148.88;100.00;77528.50;5016430;28;20033;-73
2022/12/06 03:04:45;;;;;;;15.15;8.23;;;;;;;-148.88;100.00;77520.38;5012099;28;20109;-74
2022/12/06 03:07:34;;;;;;;16.75;9.13;;;;;;;-148.88;100.00;77528.50;5013280;28;20125;-74
2022/12/06 03:10:27;;;;;;;16.35;9.02;;;;;;;-148.88;100.00;77522.41;5013619;28;20037;-74
2022/12/06 03:12:52;;;;;;;18.85;8.05;;;;;;;-148.88;100.00;77526.47;5013245;28;20084;-74
2022/12/06 03:15:43;;;;;;;18.35;8.45;;;;;;;-148.88;100.00;77534.63;5012131;28;20030;-74
2022/12/06 03:18:19;;;;;;;19.83;8.35;;;;;;;-148.88;100.00;77528.50;5013773;28;20026;-74
2022/12/06 03:20:51;;;;;;;16.13;7.88;;;;;;;-148.88;100.00;77526.47;5013287;28;20030;-74
2022/12/06 03:23:23;;;;;;;16.80;7.88;;;;;;;-148.88;100.00;77516.31;5013401;28;20483;-74
2022/12/06 03:25:51;;;;;;;15.68;7.80;;;;;;;-148.88;100.00;77518.34;5011990;28;20103;-74
2022/12/06 03:28:20;;;;;;;14.77;8.48;;;;;;;-148.88;100.00;77522.41;5011971;28;20439;-74
2022/12/06 03:30:50;;;;;;;15.55;8.15;;;;;;;-148.88;100.00;77516.31;5013325;28;20033;-74
2022/12/06 03:33:20;;;;;;;15.57;8.93;;;;;;;-148.88;100.00;77518.34;5011841;28;20111;-74
2022/12/06 03:35:48;;;;;;;17.35;8.32;;;;;;;-148.88;100.00;77516.31;5012778;28;20026;-74
2022/12/06 03:38:20;;;;;;;14.90;8.32;;;;;;;-148.88;100.00;77500.06;5013537;28;20034;-73
2022/12/06 03:40:50;;;;;;;17.65;7.88;;;;;;;-148.88;100.00;77514.28;5013565;28;20095;-74
2022/12/06 03:43:16;;;;;;;20.55;9.00;;;;;;;-148.88;100.00;77518.34;5012982;28;20022;-74
2022/12/06 03:46:00;;;;;;;16.65;8.43;;;;;;;-148.88;100.00;77496.00;5012944;28;20389;-74
2022/12/06 03:48:32;;;;;;;18.60;9.00;;;;;;;-148.88;100.00;77502.09;5011807;28;20030;-74
2022/12/06 03:51:06;;;;;;;18.85;8.80;;;;;;;-148.88;100.00;77506.16;5013232;28;20036;-73
2022/12/06 03:53:32;;;;;;;17.08;9.00;;;;;;;-148.88;100.00;77508.19;5011606;28;20022;-74
2022/12/06 03:55:57;;;;;;;21.00;9.20;;;;;;;-148.88;100.00;77504.13;5011597;28;20030;-74
2022/12/06 03:58:22;;;;;;;23.23;9.27;;;;;;;-148.88;100.00;77510.22;5013142;28;20025;-74
2022/12/06 04:00:48;;;;;;;16.05;8.02;;;;;;;-148.88;100.00;77500.06;5014505;28;20022;-73
2022/12/06 04:03:13;;;;;;;21.73;8.52;;;;;;;-148.88;100.00;77510.22;5015407;28;20510;-74
2022/12/06 04:05:39;;;;;;;17.15;8.43;;;;;;;-148.88;100.00;77510.22;5014943;28;20475;-74
2022/12/06 04:08:04;;;;;;;18.80;8.07;;;;;;;-148.88;100.00;77493.97;5016934;28;20033;-74
2022/12/06 04:10:30;;;;;;;22.45;10.05;;;;;;;-148.88;100.00;77500.06;5016951;28;20482;-74
2022/12/06 04:13:01;;;;;;;17.77;8.57;;;;;;;-148.88;100.00;77502.09;5016418;28;20026;-73
2022/12/06 04:15:33;;;;;;;18.38;8.55;;;;;;;-148.88;100.00;77502.09;5015375;28;20026;-73
2022/12/06 04:18:15;;;;;;;20.58;8.57;;;;;;;-148.88;100.00;77485.84;5016422;28;20079;-73
2022/12/06 04:23:48;;;;;;;16.42;7.47;;;;;;;-148.88;100.00;77487.88;5016510;28;20391;-74
2022/12/06 04:26:21;;;;;;;34.22;10.10;;;;;;;-148.88;100.00;77489.91;5016009;28;20053;-73
2022/12/06 04:39:45;;;;;;;38.13;9.60;;;;;;;-148.88;100.00;77471.63;5016443;28;19916;-73
2022/12/06 04:44:54;;;;;;;27.70;9.93;;;;;;;-148.88;100.00;77471.63;5015800;28;20028;-74
2022/12/06 04:47:19;;;;;;;20.25;8.48;;;;;;;-148.88;100.00;77463.50;5014391;28;20116;-73
2022/12/06 04:49:45;;;;;;;37.40;9.73;;;;;;;-148.88;100.00;77467.56;5015946;28;20029;-73
2022/12/06 04:52:10;;;;;;;23.58;8.18;;;;;;;-148.88;100.00;77459.44;5014636;28;20055;-73
2022/12/06 04:54:36;;;;;;;28.60;9.45;;;;;;;-148.88;100.00;77451.28;5015798;28;20109;-73
2022/12/06 04:57:03;;;;;;;81.68;14.63;;;;;;;-148.88;100.00;77459.44;5014218;28;20056;-73
2022/12/06 04:59:28;;;;;;;69.88;14.57;;;;;;;-148.88;100.00;77463.50;5015405;28;20439;-74
2022/12/06 05:01:54;;;;;;;70.55;12.50;;;;;;;-148.88;100.00;77457.41;5015678;28;20536;-74
2022/12/06 05:04:20;;;;;;;67.15;10.73;;;;;;;-148.88;100.00;77455.38;5015276;28;20495;-73
2022/12/06 05:06:46;;;;;;;42.65;9.73;;;;;;;-148.88;100.00;77455.38;5015134;28;20108;-73
2022/12/06 05:09:12;;;;;;;25.75;8.07;;;;;;;-148.88;100.00;77455.38;5015190;28;20028;-74
2022/12/06 05:11:38;;;;;;;30.40;8.65;;;;;;;-148.88;100.00;77443.16;5015255;28;20203;-74
2022/12/06 05:14:03;;;;;;;60.70;11.95;;;;;;;-148.88;100.00;77439.09;5015045;28;20026;-73
2022/12/06 05:16:29;;;;;;;52.95;11.00;;;;;;;-148.88;100.00;77439.09;5014978;28;20026;-74
2022/12/06 05:18:54;;;;;;;21.10;7.72;;;;;;;-148.88;100.00;77439.09;5014985;28;20383;-73
2022/12/06 05:21:22;;;;;;;32.30;8.95;;;;;;;-148.88;100.00;77443.16;5015232;28;20025;-73
2022/12/06 05:23:48;;;;;;;57.47;10.50;;;;;;;-148.88;100.00;77447.22;5015064;28;20029;-74
2022/12/06 05:26:18;;;;;;;25.90;8.30;;;;;;;-148.88;100.00;77435.03;5015156;28;20022;-73
2022/12/06 05:28:45;;;;;;;42.55;9.63;;;;;;;-148.88;100.00;77441.13;5015279;28;20109;-74
2022/12/06 05:31:11;;;;;;;43.42;9.90;;;;;;;-148.88;100.00;77430.97;5014853;28;20049;-73
2022/12/06 05:33:37;;;;;;;24.73;7.95;;;;;;;-148.88;100.00;77433.00;5013420;28;20480;-74
2022/12/06 05:36:10;;;;;;;16.30;8.07;;;;;;;-148.88;100.00;77422.84;5014730;28;20041;-73
2022/12/06 05:38:35;;;;;;;37.40;8.68;;;;;;;-148.88;100.00;77428.94;5014826;28;20125;-74
2022/12/06 05:41:04;;;;;;;82.15;13.80;;;;;;;-148.88;100.00;77428.94;5014633;28;20038;-73
2022/12/06 05:43:30;;;;;;;23.55;8.68;;;;;;;-148.88;100.00;77422.84;5013167;28;20044;-75
2022/12/06 05:45:56;;;;;;;39.38;9.50;;;;;;;-148.88;100.00;77412.69;5014902;28;20406;-74
2022/12/06 05:48:21;;;;;;;43.13;10.40;;;;;;;-148.88;100.00;77424.88;5014998;28;20032;-74
2022/12/06 05:50:47;;;;;;;36.10;9.38;;;;;;;-148.88;100.00;77414.72;5013505;28;20471;-74
2022/12/06 05:53:13;;;;;;;25.40;7.75;;;;;;;-148.88;100.00;77410.66;5013164;28;20025;-73
2022/12/06 05:55:39;;;;;;;44.55;9.82;;;;;;;-148.88;100.00;77398.47;5014219;28;20033;-74
2022/12/06 05:58:04;;;;;;;98.53;11.48;;;;;;;-148.88;100.00;77394.41;5014622;28;20030;-74
2022/12/06 06:00:29;;;;;;;39.78;9.70;;;;;;;-148.88;100.00;77402.53;5012847;28;20459;-73
2022/12/06 06:02:55;;;;;;;29.25;7.53;;;;;;;-148.88;100.00;77398.47;5014377;28;20022;-73
2022/12/06 06:05:20;;;;;;;64.60;11.32;;;;;;;-148.88;100.00;77402.53;5014359;28;20026;-74
2022/12/06 06:07:46;;;;;;;28.75;8.65;;;;;;;-148.88;100.00;77404.56;5014179;28;20026;-74
2022/12/06 06:10:12;;;;;;;31.83;8.55;;;;;;;-148.88;100.00;77400.50;5013041;28;20477;-73
2022/12/06 06:12:38;;;;;;;66.38;8.90;;;;;;;-148.88;100.00;77398.47;5014050;28;20435;-73
2022/12/06 06:15:06;;;;;;;22.23;8.07;;;;;;;-148.88;100.00;77398.47;5013768;28;20541;-73
2022/12/06 06:17:32;;;;;;;25.55;8.38;;;;;;;-148.88;100.00;77388.31;5014195;28;20049;-76
2022/12/06 06:19:58;;;;;;;38.75;8.65;;;;;;;-148.88;100.00;77398.47;5014011;28;20026;-76
2022/12/06 06:22:23;;;;;;;54.40;8.82;;;;;;;-148.88;100.00;77400.50;5013401;28;20029;-76
2022/12/06 06:24:49;;;;;;;60.97;11.75;;;;;;;-148.88;100.00;77402.53;5025339;22;20033;-76
2022/12/06 06:27:14;;;;;;;83.68;12.25;;;;;;;-148.88;100.00;77398.47;5013970;28;20026;-75
2022/12/06 06:29:39;;;;;;;55.60;10.40;;;;;;;-148.88;100.00;77390.34;5013514;28;20021;-75
2022/12/06 06:32:05;;;;;;;57.60;10.18;;;;;;;-148.88;100.00;77394.41;5013777;28;20053;-75
2022/12/06 06:34:30;;;;;;;32.67;8.88;;;;;;;-148.88;100.00;77384.25;5012084;28;20124;-75
2022/12/06 06:36:55;;;;;;;90.00;12.73;;;;;;;-148.88;100.00;77396.44;5013424;28;20036;-75
2022/12/06 06:39:23;;;;;;;98.75;12.93;;;;;;;-148.88;100.00;77394.41;5013743;28;20076;-76
2022/12/06 06:41:48;;;;;;;74.00;10.70;;;;;;;-148.88;100.00;77392.38;5013437;28;20503;-75
2022/12/06 06:44:15;;;;;;;58.45;10.13;;;;;;;-148.88;100.00;77392.38;5011989;28;20033;-75
2022/12/06 06:46:40;;;;;;;52.78;10.95;;;;;;;-148.88;100.00;77394.41;5013343;28;20033;-75
2022/12/06 06:49:05;;;;;;;107.57;14.25;;;;;;;-148.88;100.00;77390.34;5013435;28;20030;-75
2022/12/06 06:51:31;;;;;;;89.93;11.38;;;;;;;-148.88;100.00;77390.34;5014124;28;20025;-75
2022/12/06 06:53:57;;;;;;;154.85;17.77;;;;;;;-148.88;100.00;77394.41;5013358;28;20026;-75
2022/12/06 06:56:23;;;;;;;67.95;11.98;;;;;;;-148.88;100.00;77390.34;5013225;28;20404;-75
2022/12/06 06:58:48;;;;;;;47.22;11.45;;;;;;;-148.88;100.00;77386.28;5013183;28;20030;-75
2022/12/06 07:01:20;;;;;;;102.68;13.45;;;;;;;-148.88;100.00;77384.25;5013135;28;20026;-75
2022/12/06 07:03:46;;;;;;;32.70;9.35;;;;;;;-148.88;100.00;77388.31;5013038;28;20057;-75
2022/12/06 07:06:11;;;;;;;59.95;12.80;;;;;;;-148.88;100.00;77390.34;5011904;28;20021;-75
2022/12/06 07:08:39;;;;;;;56.75;10.55;;;;;;;-148.88;100.00;77388.31;5013000;28;20022;-75
2022/12/06 07:11:05;;;;;;;96.35;14.23;;;;;;;-148.88;100.00;77384.25;5012925;28;20065;-75
2022/12/06 07:13:30;;;;;;;80.57;11.95;;;;;;;-148.88;100.00;77386.28;5013112;28;20069;-75
2022/12/06 07:15:57;;;;;;;124.18;16.13;;;;;;;-148.88;100.00;77386.28;5012899;28;20504;-75
2022/12/06 07:18:24;;;;;;;116.82;14.48;;;;;;;-148.88;100.00;77386.28;5011617;28;20404;-75
2022/12/06 07:21:04;;;;;;;163.90;18.95;;;;;;;-148.88;100.00;77384.25;5012928;28;20109;-75
2022/12/06 07:23:31;;;;;;;76.68;11.63;;;;;;;-148.88;100.00;77374.09;5011699;28;20401;-75
2022/12/06 07:26:02;;;;;;;85.60;12.10;;;;;;;-148.88;100.00;77388.31;5011822;28;20026;-76
2022/12/06 07:28:27;;;;;;;106.43;14.73;;;;;;;-148.88;100.00;77388.31;5013211;28;20022;-75
2022/12/06 07:30:53;;;;;;;74.80;13.57;;;;;;;-148.88;100.00;77382.22;5013084;28;20029;-75
2022/12/06 07:33:18;;;;;;;67.90;12.95;;;;;;;-148.88;100.00;77378.16;5012714;28;20033;-75
2022/12/06 07:35:44;;;;;;;39.55;9.82;;;;;;;-148.88;100.00;77380.19;5015977;28;20053;-76
2022/12/06 07:38:09;;;;;;;190.07;20.33;;;;;;;-148.88;100.00;77378.16;5016564;28;20024;-75
2022/12/06 07:40:34;;;;;;;121.18;15.85;;;;;;;-148.88;100.00;77386.28;5016749;28;20026;-75
2022/12/06 07:45:44;;;;;;;39.47;10.25;;;;;;;-148.88;100.00;77382.22;5016487;28;20025;-75
2022/12/06 07:48:10;;;;;;;131.52;15.68;;;;;;;-148.88;100.00;77388.31;5016374;28;20033;-75
2022/12/06 07:50:35;;;;;;;43.25;10.98;;;;;;;-148.88;100.00;77374.09;5016402;28;20037;-75
2022/12/06 07:53:01;;;;;;;93.85;15.75;;;;;;;-148.88;100.00;77378.16;5016351;28;20026;-75
2022/12/06 07:55:26;;;;;;;52.55;14.60;;;;;;;-148.88;100.00;77376.13;5015528;28;20056;-75
2022/12/06 07:57:51;;;;;;;40.83;12.77;;;;;;;-148.88;100.00;77372.03;5016299;28;20030;-75
2022/12/06 08:00:17;;;;;;;44.83;12.10;;;;;;;-148.88;100.00;77374.09;5016263;28;20021;-75
2022/12/06 08:02:43;;;;;;;30.20;10.38;;;;;;;-148.88;100.00;77355.78;5016305;28;20029;-75
2022/12/06 08:05:09;;;;;;;40.60;12.45;;;;;;;-148.88;100.00;77365.94;5016535;28;20038;-75
2022/12/06 08:07:34;;;;;;;44.47;12.43;;;;;;;-148.88;100.00;77365.94;5016231;28;20025;-75
2022/12/06 08:09:59;;;;;;;50.63;13.15;;;;;;;-148.88;100.00;77361.88;5016534;28;20033;-75
2022/12/06 08:12:24;;;;;;;41.72;12.23;;;;;;;-148.88;100.00;77363.91;5015985;28;20053;-75
2022/12/06 08:14:50;;;;;;;51.10;12.30;;;;;;;-148.88;100.00;77367.97;5015832;28;20021;-75
2022/12/06 08:17:15;;;;;;;52.10;13.80;;;;;;;-148.88;100.00;77370.00;5015820;28;20033;-75
2022/12/06 08:19:41;;;;;;;59.95;13.25;;;;;;;-148.88;100.00;77365.94;5016053;28;20484;-75
2022/12/06 08:22:06;;;;;;;41.03;11.40;;;;;;;-148.88;100.00;77353.75;5015713;28;20033;-75
2022/12/06 08:24:31;;;;;;;41.00;11.45;;;;;;;-148.88;100.00;77361.88;5015715;28;20029;-75
2022/12/06 08:26:58;;;;;;;47.30;10.50;;;;;;;-148.88;100.00;77349.69;5015732;28;20506;-75
2022/12/06 08:29:23;;;;;;;54.15;11.65;;;;;;;-148.88;100.00;77349.69;5015615;28;20030;-75
2022/12/06 08:31:49;;;;;;;36.47;11.57;;;;;;;-148.88;100.00;77349.69;5015784;28;20052;-75
2022/12/06 08:34:15;;;;;;;53.47;12.27;;;;;;;-148.88;100.00;77349.69;5014507;28;20025;-75
2022/12/06 08:36:41;;;;;;;38.95;10.35;;;;;;;-148.88;100.00;77337.50;5015681;28;20396;-75
2022/12/06 08:39:09;;;;;;;34.65;10.20;;;;;;;-148.88;100.00;77339.53;5016367;28;20064;-75
2022/12/06 08:44:19;;;;;;;39.80;12.30;;;;;;;-148.88;100.00;77329.38;5015755;28;20114;-75
2022/12/06 08:46:45;;;;;;;34.13;11.63;;;;;;;-148.88;100.00;77331.41;5013363;28;20451;-75
2022/12/06 08:49:11;;;;;;;39.88;13.40;;;;;;;-148.88;100.00;77335.47;5015587;28;20096;-75
2022/12/06 08:51:37;;;;;;;59.97;18.23;;;;;;;-148.88;100.00;77329.38;5015216;28;20036;-75
2022/12/06 08:54:03;;;;;;;38.15;14.35;;;;;;;-148.88;100.00;77331.41;5015148;28;20029;-75
2022/12/06 08:56:29;;;;;;;36.72;13.80;;;;;;;-148.88;100.00;77327.34;5015019;28;20037;-75
2022/12/06 08:58:55;;;;;;;29.52;12.05;;;;;;;-148.88;100.00;77323.28;5014965;28;20029;-75
2022/12/06 09:01:23;;;;;;;27.90;10.18;;;;;;;-148.88;100.00;77323.28;5015007;28;20050;-75
2022/12/06 09:03:49;;;;;;;36.63;11.95;;;;;;;-148.88;100.00;77321.25;5013598;28;20544;-75
2022/12/06 09:06:16;;;;;;;32.58;10.43;;;;;;;-148.88;100.00;77321.25;5014862;28;20036;-75
2022/12/06 09:08:43;;;;;;;23.40;8.70;;;;;;;-148.88;100.00;77313.13;5015189;28;20101;-75
2022/12/06 09:11:08;;;;;;;29.40;9.40;;;;;;;-148.88;100.00;77309.06;5014763;28;20022;-75
2022/12/06 09:13:35;;;;;;;23.13;8.43;;;;;;;-148.88;100.00;77305.00;5014904;28;20166;-75
2022/12/06 09:16:21;;;;;;;29.30;9.48;;;;;;;-148.88;100.00;77300.94;5013479;28;20400;-75
2022/12/06 09:18:47;;;;;;;26.98;8.80;;;;;;;-148.88;100.00;77296.88;5015040;28;20128;-75
2022/12/06 09:21:15;;;;;;;25.42;9.95;;;;;;;-148.88;100.00;77300.94;5014943;28;20025;-75
2022/12/06 09:23:42;;;;;;;29.75;11.48;;;;;;;-148.88;100.00;77305.00;5014597;28;20052;-75
2022/12/06 09:26:07;;;;;;;42.97;11.65;;;;;;;-148.88;100.00;77300.94;5013236;28;20030;-75
2022/12/06 09:28:38;;;;;;;27.63;9.90;;;;;;;-148.88;100.00;77290.75;5014452;28;20021;-75
2022/12/06 09:31:05;;;;;;;44.72;11.45;;;;;;;-148.88;100.00;77296.88;5014680;28;20030;-75
2022/12/06 09:33:30;;;;;;;39.40;11.77;;;;;;;-148.88;100.00;77294.84;5014421;28;20028;-75
2022/12/06 09:35:57;;;;;;;35.80;11.38;;;;;;;-148.88;100.00;77288.72;5014277;28;20037;-75
2022/12/06 09:38:26;;;;;;;32.33;10.07;;;;;;;-148.88;100.00;77288.72;5014465;28;20441;-75
2022/12/06 09:41:22;;;;;;;32.55;10.75;;;;;;;-148.88;100.00;77280.59;5014332;28;20032;-75
2022/12/06 09:44:19;;;;;;;28.50;10.60;;;;;;;-148.88;100.00;77278.56;5014639;28;20105;-75
2022/12/06 09:47:21;;;;;;;33.92;9.93;;;;;;;-148.88;100.00;77276.53;5012909;28;20117;-75
2022/12/06 09:49:49;;;;;;;32.17;10.00;;;;;;;-148.88;100.00;77272.47;5014504;28;20081;-75
2022/12/06 09:52:44;;;;;;;29.05;9.73;;;;;;;-148.88;100.00;77270.44;5014631;28;20088;-75
2022/12/06 09:55:38;;;;;;;27.88;9.57;;;;;;;-148.88;100.00;77262.31;5014309;28;20108;-75
2022/12/06 09:58:22;;;;;;;;;;;;;;;-148.88;100.00;77256.22;5007690;28;20034;-75
2022/12/06 10:00:58;;;;;;;27.30;8.65;;;;;;;-148.88;100.00;77254.19;5013897;28;20364;-75
2022/12/06 10:03:41;;;;;;;29.00;9.43;;;;;;;-148.88;100.00;77244.03;5012672;28;20460;-75
2022/12/06 10:06:15;;;;;;;31.48;11.18;;;;;;;-148.88;100.00;77244.03;5012606;28;20564;-75
2022/12/06 10:08:55;;;;;;;37.42;11.88;;;;;;;-148.88;100.00;77239.97;5013993;28;20030;-75
2022/12/06 10:11:38;;;;;;;36.83;10.40;;;;;;;-148.88;100.00;77227.78;5012551;28;20116;-75
2022/12/06 10:14:37;;;;;;;33.70;9.65;;;;;;;-148.88;100.00;77231.84;5013897;28;20037;-75
2022/12/06 10:17:12;;;;;;;26.85;9.05;;;;;;;-148.88;100.00;77223.72;5012424;28;20030;-75
2022/12/06 10:20:02;;;;;;;32.83;9.45;;;;;;;-148.88;100.00;77215.59;5014129;28;20026;-75
2022/12/06 10:23:04;;;;;;;26.48;10.00;;;;;;;-148.88;100.00;77211.53;5012283;28;20045;-74
2022/12/06 10:25:32;;;;;;;30.00;10.23;;;;;;;-148.88;100.00;77201.34;5013705;28;20026;-74
2022/12/06 10:28:09;;;;;;;28.05;8.65;;;;;;;-148.88;100.00;77193.22;5014133;28;20030;-75
2022/12/06 10:30:46;;;;;;;29.42;9.35;;;;;;;-148.88;100.00;77187.13;5013745;28;20077;-75
2022/12/06 10:33:50;;;;;;;28.90;8.23;;;;;;;-148.88;100.00;77174.94;5013641;28;20026;-75
2022/12/06 10:36:40;;;;;;;30.50;10.15;;;;;;;-148.88;100.00;77174.94;5013612;28;20468;-75
2022/12/06 10:39:21;;;;;;;29.75;9.60;;;;;;;-148.88;100.00;77152.59;5013380;28;20026;-76
2022/12/06 10:42:07;;;;;;;33.67;9.90;;;;;;;-148.88;100.00;77138.38;5012085;28;20018;-76
2022/12/06 10:44:51;;;;;;;24.38;8.93;;;;;;;-148.88;100.00;77134.31;5013281;28;20081;-76
2022/12/06 10:47:16;;;;;;;;;;;;;;;-148.88;100.00;77130.25;5013683;28;20101;-77
2022/12/06 10:49:56;;;;;;;24.02;8.23;;;;;;;-148.88;100.00;77109.94;5011926;28;19996;-76
2022/12/06 10:52:30;;;;;;;25.50;8.85;;;;;;;-148.88;100.00;77107.91;5013211;28;20522;-76
2022/12/06 10:55:01;;;;;;;22.10;7.97;;;;;;;-148.88;100.00;77118.06;5012101;28;20503;-76
2022/12/06 10:57:51;;;;;;;22.50;8.73;;;;;;;-148.88;100.00;77122.13;5013189;28;20057;-76
2022/12/06 11:00:18;;;;;;;28.77;9.68;;;;;;;-148.88;100.00;77089.59;5013203;28;20033;-76
2022/12/06 11:02:55;;;;;;;32.97;11.20;;;;;;;-148.88;100.00;77085.53;5011718;28;20439;-76
2022/12/06 11:05:44;;;;;;;28.73;9.75;;;;;;;-148.88;100.00;77089.59;5013399;28;20124;-76
2022/12/06 11:08:22;;;;;;;25.08;9.77;;;;;;;-148.88;100.00;77105.84;4985386;28;20066;-76
2022/12/06 11:10:49;;;;;;;25.83;11.32;;;;;;;-148.88;100.00;77093.66;5012692;28;20022;-76
2022/12/06 11:13:55;;;;;;;23.23;9.20;;;;;;;-148.88;100.00;77093.66;5013504;28;20075;-76
2022/12/06 11:16:25;;;;;;;22.20;8.35;;;;;;;-148.88;100.00;77075.38;5013137;28;20130;-76
2022/12/06 11:18:55;;;;;;;20.42;7.28;;;;;;;-148.88;100.00;77048.97;5013274;28;20018;-76
2022/12/06 11:21:37;;;;;;;16.75;7.18;;;;;;;-148.88;100.00;77073.34;5013255;28;20377;-76
2022/12/06 11:24:25;;;;;;;15.90;7.30;;;;;;;-148.88;100.00;77077.41;5012901;28;20026;-76
2022/12/06 11:27:03;;;;;;;21.90;7.50;;;;;;;-148.88;100.00;77075.38;5011511;28;20029;-76
2022/12/06 11:29:29;;;;;;;19.15;7.03;;;;;;;-148.88;100.00;77081.47;5013020;28;20026;-75
2022/12/06 11:32:00;;;;;;;19.77;7.70;;;;;;;-148.88;100.00;77085.53;5012871;28;20030;-75
2022/12/06 11:34:35;;;;;;;17.75;6.05;;;;;;;-148.88;100.00;77081.47;5012861;28;20022;-75
2022/12/06 11:37:03;;;;;;;17.33;7.70;;;;;;;-148.88;100.00;77089.59;5012943;28;20022;-75
2022/12/06 11:39:30;;;;;;;15.68;6.30;;;;;;;-148.88;100.00;77085.53;5011560;28;20030;-75